CYUL/YUL METAR and TAF weather

Enter ICAO airport designator
Station Type Date Time Source
CYUL METAR 2021/01/17 19:23 UTC NOAA

CYUL 171923Z 26015G20KT 15SM -SN OVC014 00/M02 A2935 RMK SC8 SLP942


Station Type Date Time Source
CYUL Decoded METAR 2021/01/17 19:23 UTC NOAA

Montreal / Pierre Elliot Trudeau International Airport, Que, Canada (CYUL) 45-28N 073-45W 36M
Jan 17, 2021 - 02:23 PM EST / 2021.01.17 1923 UTC
Wind: from the W (260 degrees) at 17 MPH (15 KT) gusting to 23 MPH (20 KT):0
Visibility: 15 mile(s):0
Sky conditions: overcast
Weather: light snow
Temperature: 32 F (0 C)
Windchill: 21 F (-6 C):1
Dew Point: 28 F (-2 C)
Relative Humidity: 86%
Pressure (altimeter): 29.35 in. Hg (993 hPa)
ob: CYUL 171923Z 26015G20KT 15SM -SN OVC014 00/M02 A2935 RMK SC8 SLP942
cycle: 19

Station Type Date Time Source
CYUL TAF 2021/01/17 18:45 UTC NOAA

TAF CYUL 171740Z 1718/1818 26015G25KT P6SM FEW012 BKN060
TEMPO 1718/1722 5SM -SHSN BKN012 OVC060
BECMG 1720/1722 26010KT
RMK NXT FCST BY 172100Z

Example: see airport list